Weather at Diagoras Airport

Public forecast

Using degrees Celsius for public forecast. Weather courtesy of forecast.io.

Current aviation weather report (METAR) for Diagoras Airport

Retrieved 2021/01/27 02:20 UTC (39 minutes ago):

LGRP 270220Z VRB09G28KT 9999 -RA FEW016TCU SCT020 17/13 Q1001 WS ALL RWY NOSIG

Aviation forecast (TAF) for Diagoras Airport

Retrieved 2021-01-27 00:12 UTC (3 hours ago):

TAF TAF LGRP 262300Z 2700/2724 15016G26KT 9999 FEW012 SCT020 PROB40 TEMPO 2701/2724 5000 RA SCT012 FEW018TCU BKN020 PROB40 TEMPO 2703/2721 3000 TSRA SCT010 FEW016CB OVC025 BECMG 2706/2708 27016G28KT